sensor_id;sensor_type;location;lat;lon;timestamp;P1;durP1;ratioP1;P2;durP2;ratioP2
20287;SDS011;10303;51.960;8.372;2023-09-18T00:00:51;2.65;;;2.00;;
20287;SDS011;10303;51.960;8.372;2023-09-18T00:03:19;2.28;;;2.00;;
20287;SDS011;10303;51.960;8.372;2023-09-18T00:05:49;2.50;;;2.20;;
20287;SDS011;10303;51.960;8.372;2023-09-18T00:08:16;2.15;;;2.05;;
20287;SDS011;10303;51.960;8.372;2023-09-18T00:10:52;2.00;;;1.90;;
20287;SDS011;10303;51.960;8.372;2023-09-18T00:13:20;2.20;;;2.10;;
20287;SDS011;10303;51.960;8.372;2023-09-18T00:15:48;2.53;;;2.10;;
20287;SDS011;10303;51.960;8.372;2023-09-18T00:18:14;2.70;;;2.17;;
20287;SDS011;10303;51.960;8.372;2023-09-18T00:20:41;2.20;;;2.08;;
20287;SDS011;10303;51.960;8.372;2023-09-18T00:23:08;2.20;;;2.10;;
20287;SDS011;10303;51.960;8.372;2023-09-18T00:25:35;3.97;;;2.45;;
20287;SDS011;10303;51.960;8.372;2023-09-18T00:28:02;2.65;;;2.45;;
20287;SDS011;10303;51.960;8.372;2023-09-18T00:30:28;2.13;;;2.00;;
20287;SDS011;10303;51.960;8.372;2023-09-18T00:32:54;2.22;;;2.13;;
20287;SDS011;10303;51.960;8.372;2023-09-18T00:35:20;4.70;;;2.08;;
20287;SDS011;10303;51.960;8.372;2023-09-18T00:37:48;2.00;;;1.90;;
20287;SDS011;10303;51.960;8.372;2023-09-18T00:40:14;2.55;;;2.35;;
20287;SDS011;10303;51.960;8.372;2023-09-18T00:42:40;2.33;;;2.13;;
20287;SDS011;10303;51.960;8.372;2023-09-18T00:45:06;2.47;;;2.25;;
20287;SDS011;10303;51.960;8.372;2023-09-18T00:47:33;5.07;;;2.55;;
20287;SDS011;10303;51.960;8.372;2023-09-18T00:50:02;3.40;;;2.20;;
20287;SDS011;10303;51.960;8.372;2023-09-18T00:52:32;2.20;;;2.10;;
20287;SDS011;10303;51.960;8.372;2023-09-18T00:54:59;1.77;;;1.67;;
20287;SDS011;10303;51.960;8.372;2023-09-18T00:57:27;2.50;;;1.90;;
20287;SDS011;10303;51.960;8.372;2023-09-18T00:59:54;1.77;;;1.67;;
20287;SDS011;10303;51.960;8.372;2023-09-18T01:02:20;2.05;;;1.88;;
20287;SDS011;10303;51.960;8.372;2023-09-18T01:04:46;2.38;;;2.17;;
20287;SDS011;10303;51.960;8.372;2023-09-18T01:07:14;2.13;;;2.03;;
20287;SDS011;10303;51.960;8.372;2023-09-18T01:09:40;2.30;;;2.10;;
20287;SDS011;10303;51.960;8.372;2023-09-18T01:15:02;4.28;;;2.28;;
20287;SDS011;10303;51.960;8.372;2023-09-18T01:17:40;2.10;;;1.85;;
20287;SDS011;10303;51.960;8.372;2023-09-18T01:20:11;2.28;;;1.75;;
20287;SDS011;10303;51.960;8.372;2023-09-18T01:22:37;2.30;;;2.17;;
20287;SDS011;10303;51.960;8.372;2023-09-18T01:25:03;2.13;;;1.92;;
20287;SDS011;10303;51.960;8.372;2023-09-18T01:27:31;2.50;;;2.30;;
20287;SDS011;10303;51.960;8.372;2023-09-18T01:29:57;3.40;;;2.30;;
20287;SDS011;10303;51.960;8.372;2023-09-18T01:32:25;1.77;;;1.67;;
20287;SDS011;10303;51.960;8.372;2023-09-18T01:34:56;2.00;;;1.90;;
20287;SDS011;10303;51.960;8.372;2023-09-18T01:37:26;2.00;;;1.90;;
20287;SDS011;10303;51.960;8.372;2023-09-18T01:39:55;2.00;;;1.90;;
20287;SDS011;10303;51.960;8.372;2023-09-18T01:42:25;1.88;;;1.77;;
20287;SDS011;10303;51.960;8.372;2023-09-18T01:44:53;1.92;;;1.83;;
20287;SDS011;10303;51.960;8.372;2023-09-18T01:47:20;2.53;;;2.05;;
20287;SDS011;10303;51.960;8.372;2023-09-18T01:49:52;2.33;;;2.13;;
20287;SDS011;10303;51.960;8.372;2023-09-18T01:52:18;1.92;;;1.73;;
20287;SDS011;10303;51.960;8.372;2023-09-18T01:54:44;1.83;;;1.63;;
20287;SDS011;10303;51.960;8.372;2023-09-18T01:57:10;1.60;;;1.50;;
20287;SDS011;10303;51.960;8.372;2023-09-18T01:59:37;2.33;;;1.77;;
20287;SDS011;10303;51.960;8.372;2023-09-18T02:02:04;2.03;;;1.90;;
20287;SDS011;10303;51.960;8.372;2023-09-18T02:04:35;2.42;;;1.83;;
20287;SDS011;10303;51.960;8.372;2023-09-18T02:07:02;2.22;;;2.13;;
20287;SDS011;10303;51.960;8.372;2023-09-18T02:09:28;1.58;;;1.48;;
20287;SDS011;10303;51.960;8.372;2023-09-18T02:11:54;2.83;;;2.60;;
20287;SDS011;10303;51.960;8.372;2023-09-18T02:14:20;5.72;;;1.95;;
20287;SDS011;10303;51.960;8.372;2023-09-18T02:16:46;2.10;;;1.80;;
20287;SDS011;10303;51.960;8.372;2023-09-18T02:19:15;2.30;;;2.15;;
20287;SDS011;10303;51.960;8.372;2023-09-18T02:21:42;4.05;;;2.00;;
20287;SDS011;10303;51.960;8.372;2023-09-18T02:24:08;2.13;;;2.00;;
20287;SDS011;10303;51.960;8.372;2023-09-18T02:26:34;3.28;;;2.00;;
20287;SDS011;10303;51.960;8.372;2023-09-18T02:29:08;2.30;;;2.10;;
20287;SDS011;10303;51.960;8.372;2023-09-18T02:31:39;2.28;;;2.17;;
20287;SDS011;10303;51.960;8.372;2023-09-18T02:34:05;4.55;;;2.08;;
20287;SDS011;10303;51.960;8.372;2023-09-18T02:36:35;3.28;;;2.47;;
20287;SDS011;10303;51.960;8.372;2023-09-18T02:39:01;2.83;;;2.20;;
20287;SDS011;10303;51.960;8.372;2023-09-18T02:41:27;2.65;;;2.40;;
20287;SDS011;10303;51.960;8.372;2023-09-18T02:43:53;2.38;;;2.17;;
20287;SDS011;10303;51.960;8.372;2023-09-18T02:46:19;2.03;;;1.92;;
20287;SDS011;10303;51.960;8.372;2023-09-18T02:48:46;2.47;;;2.30;;
20287;SDS011;10303;51.960;8.372;2023-09-18T02:51:12;2.10;;;2.00;;
20287;SDS011;10303;51.960;8.372;2023-09-18T02:53:38;2.20;;;2.00;;
20287;SDS011;10303;51.960;8.372;2023-09-18T02:56:04;4.75;;;2.20;;
20287;SDS011;10303;51.960;8.372;2023-09-18T02:58:30;1.95;;;1.85;;
20287;SDS011;10303;51.960;8.372;2023-09-18T03:00:56;2.13;;;2.00;;
20287;SDS011;10303;51.960;8.372;2023-09-18T03:03:28;2.85;;;2.28;;
20287;SDS011;10303;51.960;8.372;2023-09-18T03:05:59;2.08;;;1.90;;
20287;SDS011;10303;51.960;8.372;2023-09-18T03:08:30;2.00;;;1.90;;
20287;SDS011;10303;51.960;8.372;2023-09-18T03:10:57;3.20;;;2.35;;
20287;SDS011;10303;51.960;8.372;2023-09-18T03:13:25;3.97;;;2.10;;
20287;SDS011;10303;51.960;8.372;2023-09-18T03:15:54;3.05;;;2.15;;
20287;SDS011;10303;51.960;8.372;2023-09-18T03:18:22;3.58;;;2.40;;
20287;SDS011;10303;51.960;8.372;2023-09-18T03:20:48;2.20;;;2.00;;
20287;SDS011;10303;51.960;8.372;2023-09-18T03:23:15;1.75;;;1.65;;
20287;SDS011;10303;51.960;8.372;2023-09-18T03:25:41;2.72;;;2.30;;
20287;SDS011;10303;51.960;8.372;2023-09-18T03:28:07;3.30;;;2.08;;
20287;SDS011;10303;51.960;8.372;2023-09-18T03:30:33;2.42;;;2.20;;
20287;SDS011;10303;51.960;8.372;2023-09-18T03:33:00;2.85;;;2.55;;
20287;SDS011;10303;51.960;8.372;2023-09-18T03:35:28;2.15;;;2.05;;
20287;SDS011;10303;51.960;8.372;2023-09-18T03:37:57;3.45;;;2.20;;
20287;SDS011;10303;51.960;8.372;2023-09-18T03:40:23;2.78;;;1.83;;
20287;SDS011;10303;51.960;8.372;2023-09-18T03:42:49;2.65;;;1.65;;
20287;SDS011;10303;51.960;8.372;2023-09-18T03:45:15;1.95;;;1.85;;
20287;SDS011;10303;51.960;8.372;2023-09-18T03:47:45;3.47;;;2.20;;
20287;SDS011;10303;51.960;8.372;2023-09-18T03:50:11;2.45;;;2.10;;
20287;SDS011;10303;51.960;8.372;2023-09-18T03:52:38;2.47;;;2.25;;
20287;SDS011;10303;51.960;8.372;2023-09-18T03:55:06;2.58;;;2.33;;
20287;SDS011;10303;51.960;8.372;2023-09-18T03:57:33;2.15;;;2.05;;
20287;SDS011;10303;51.960;8.372;2023-09-18T04:00:00;2.50;;;2.30;;
20287;SDS011;10303;51.960;8.372;2023-09-18T04:02:26;2.40;;;2.20;;
20287;SDS011;10303;51.960;8.372;2023-09-18T04:04:55;3.72;;;2.20;;
20287;SDS011;10303;51.960;8.372;2023-09-18T04:07:21;2.00;;;1.80;;
20287;SDS011;10303;51.960;8.372;2023-09-18T04:09:47;2.33;;;2.22;;
20287;SDS011;10303;51.960;8.372;2023-09-18T04:12:13;3.67;;;2.67;;
20287;SDS011;10303;51.960;8.372;2023-09-18T04:14:40;3.40;;;2.38;;
20287;SDS011;10303;51.960;8.372;2023-09-18T04:17:06;2.60;;;2.40;;
20287;SDS011;10303;51.960;8.372;2023-09-18T04:19:32;2.30;;;2.20;;
20287;SDS011;10303;51.960;8.372;2023-09-18T04:21:58;2.05;;;1.85;;
20287;SDS011;10303;51.960;8.372;2023-09-18T04:24:25;2.75;;;2.55;;
20287;SDS011;10303;51.960;8.372;2023-09-18T04:26:52;2.85;;;2.58;;
20287;SDS011;10303;51.960;8.372;2023-09-18T04:29:18;4.18;;;2.58;;
20287;SDS011;10303;51.960;8.372;2023-09-18T04:31:47;2.30;;;2.20;;
20287;SDS011;10303;51.960;8.372;2023-09-18T04:34:14;1.85;;;1.75;;
20287;SDS011;10303;51.960;8.372;2023-09-18T04:36:40;2.10;;;2.00;;
20287;SDS011;10303;51.960;8.372;2023-09-18T04:39:07;2.45;;;2.25;;
20287;SDS011;10303;51.960;8.372;2023-09-18T04:41:34;2.30;;;2.13;;
20287;SDS011;10303;51.960;8.372;2023-09-18T04:44:02;4.20;;;2.75;;
20287;SDS011;10303;51.960;8.372;2023-09-18T04:46:31;2.42;;;2.22;;
20287;SDS011;10303;51.960;8.372;2023-09-18T04:49:00;4.32;;;2.17;;
20287;SDS011;10303;51.960;8.372;2023-09-18T04:51:30;3.70;;;2.78;;
20287;SDS011;10303;51.960;8.372;2023-09-18T04:53:59;2.28;;;2.17;;
20287;SDS011;10303;51.960;8.372;2023-09-18T04:56:26;2.58;;;2.47;;
20287;SDS011;10303;51.960;8.372;2023-09-18T04:58:53;2.65;;;2.33;;
20287;SDS011;10303;51.960;8.372;2023-09-18T05:01:19;2.78;;;2.58;;
20287;SDS011;10303;51.960;8.372;2023-09-18T05:03:47;7.85;;;2.83;;
20287;SDS011;10303;51.960;8.372;2023-09-18T05:06:14;2.95;;;2.75;;
20287;SDS011;10303;51.960;8.372;2023-09-18T05:08:41;2.95;;;2.10;;
20287;SDS011;10303;51.960;8.372;2023-09-18T05:11:09;3.33;;;2.20;;
20287;SDS011;10303;51.960;8.372;2023-09-18T05:13:35;2.28;;;2.17;;
20287;SDS011;10303;51.960;8.372;2023-09-18T05:16:01;2.50;;;2.30;;
20287;SDS011;10303;51.960;8.372;2023-09-18T05:18:28;2.58;;;2.00;;
20287;SDS011;10303;51.960;8.372;2023-09-18T05:20:54;1.92;;;1.83;;
20287;SDS011;10303;51.960;8.372;2023-09-18T05:23:21;2.08;;;1.88;;
20287;SDS011;10303;51.960;8.372;2023-09-18T05:25:47;2.40;;;2.15;;
20287;SDS011;10303;51.960;8.372;2023-09-18T05:28:13;1.83;;;1.73;;
20287;SDS011;10303;51.960;8.372;2023-09-18T05:30:39;2.00;;;1.90;;
20287;SDS011;10303;51.960;8.372;2023-09-18T05:33:06;3.92;;;2.33;;
20287;SDS011;10303;51.960;8.372;2023-09-18T05:35:33;1.95;;;1.83;;
20287;SDS011;10303;51.960;8.372;2023-09-18T05:38:09;2.20;;;2.10;;
20287;SDS011;10303;51.960;8.372;2023-09-18T05:40:38;2.42;;;2.33;;
20287;SDS011;10303;51.960;8.372;2023-09-18T05:43:05;2.30;;;2.20;;
20287;SDS011;10303;51.960;8.372;2023-09-18T05:45:32;2.22;;;2.10;;
20287;SDS011;10303;51.960;8.372;2023-09-18T05:47:59;3.35;;;2.33;;
20287;SDS011;10303;51.960;8.372;2023-09-18T05:50:31;2.22;;;2.03;;
20287;SDS011;10303;51.960;8.372;2023-09-18T05:53:01;2.28;;;2.08;;
20287;SDS011;10303;51.960;8.372;2023-09-18T05:55:31;2.65;;;2.45;;
20287;SDS011;10303;51.960;8.372;2023-09-18T05:58:00;4.13;;;1.90;;
20287;SDS011;10303;51.960;8.372;2023-09-18T06:00:28;2.30;;;2.05;;
20287;SDS011;10303;51.960;8.372;2023-09-18T06:02:56;2.20;;;2.00;;
20287;SDS011;10303;51.960;8.372;2023-09-18T06:05:22;2.13;;;2.00;;
20287;SDS011;10303;51.960;8.372;2023-09-18T06:07:48;1.83;;;1.73;;
20287;SDS011;10303;51.960;8.372;2023-09-18T06:10:14;2.88;;;1.85;;
20287;SDS011;10303;51.960;8.372;2023-09-18T06:12:43;2.72;;;2.53;;
20287;SDS011;10303;51.960;8.372;2023-09-18T06:15:10;2.40;;;2.20;;
20287;SDS011;10303;51.960;8.372;2023-09-18T06:17:40;2.47;;;2.28;;
20287;SDS011;10303;51.960;8.372;2023-09-18T06:20:09;2.70;;;2.50;;
20287;SDS011;10303;51.960;8.372;2023-09-18T06:22:41;2.38;;;2.28;;
20287;SDS011;10303;51.960;8.372;2023-09-18T06:25:07;2.15;;;2.05;;
20287;SDS011;10303;51.960;8.372;2023-09-18T06:27:38;2.42;;;2.03;;
20287;SDS011;10303;51.960;8.372;2023-09-18T06:30:04;1.98;;;1.88;;
20287;SDS011;10303;51.960;8.372;2023-09-18T06:32:32;1.80;;;1.70;;
20287;SDS011;10303;51.960;8.372;2023-09-18T06:34:59;2.35;;;1.88;;
20287;SDS011;10303;51.960;8.372;2023-09-18T06:37:26;2.00;;;1.67;;
20287;SDS011;10303;51.960;8.372;2023-09-18T06:39:52;2.92;;;2.40;;
20287;SDS011;10303;51.960;8.372;2023-09-18T06:42:18;2.45;;;1.90;;
20287;SDS011;10303;51.960;8.372;2023-09-18T06:44:44;2.03;;;1.73;;
20287;SDS011;10303;51.960;8.372;2023-09-18T06:47:11;2.40;;;2.20;;
20287;SDS011;10303;51.960;8.372;2023-09-18T06:49:37;2.05;;;1.92;;
20287;SDS011;10303;51.960;8.372;2023-09-18T06:52:03;1.90;;;1.80;;
20287;SDS011;10303;51.960;8.372;2023-09-18T06:54:31;2.15;;;2.03;;
20287;SDS011;10303;51.960;8.372;2023-09-18T06:56:57;6.55;;;2.22;;
20287;SDS011;10303;51.960;8.372;2023-09-18T06:59:23;3.65;;;2.30;;
20287;SDS011;10303;51.960;8.372;2023-09-18T07:01:49;1.90;;;1.80;;
20287;SDS011;10303;51.960;8.372;2023-09-18T07:04:15;4.20;;;2.85;;
20287;SDS011;10303;51.960;8.372;2023-09-18T07:06:41;3.78;;;2.45;;
20287;SDS011;10303;51.960;8.372;2023-09-18T07:09:07;3.33;;;2.88;;
20287;SDS011;10303;51.960;8.372;2023-09-18T07:11:37;4.45;;;2.50;;
20287;SDS011;10303;51.960;8.372;2023-09-18T07:14:03;2.70;;;2.50;;
20287;SDS011;10303;51.960;8.372;2023-09-18T07:16:31;3.92;;;2.63;;
20287;SDS011;10303;51.960;8.372;2023-09-18T07:18:59;3.90;;;2.05;;
20287;SDS011;10303;51.960;8.372;2023-09-18T07:21:25;3.13;;;2.70;;
20287;SDS011;10303;51.960;8.372;2023-09-18T07:23:51;5.57;;;2.13;;
20287;SDS011;10303;51.960;8.372;2023-09-18T07:26:17;2.95;;;2.28;;
20287;SDS011;10303;51.960;8.372;2023-09-18T07:28:43;2.40;;;1.67;;
20287;SDS011;10303;51.960;8.372;2023-09-18T07:31:09;5.93;;;1.60;;
20287;SDS011;10303;51.960;8.372;2023-09-18T07:33:37;2.08;;;1.70;;
20287;SDS011;10303;51.960;8.372;2023-09-18T07:36:03;1.73;;;1.20;;
20287;SDS011;10303;51.960;8.372;2023-09-18T07:38:29;2.65;;;1.33;;
20287;SDS011;10303;51.960;8.372;2023-09-18T07:40:55;2.22;;;1.45;;
20287;SDS011;10303;51.960;8.372;2023-09-18T07:43:23;4.30;;;1.40;;
20287;SDS011;10303;51.960;8.372;2023-09-18T07:45:50;3.65;;;1.20;;
20287;SDS011;10303;51.960;8.372;2023-09-18T07:48:16;1.17;;;0.90;;
20287;SDS011;10303;51.960;8.372;2023-09-18T07:50:45;2.92;;;1.05;;
20287;SDS011;10303;51.960;8.372;2023-09-18T07:53:11;3.17;;;1.17;;
20287;SDS011;10303;51.960;8.372;2023-09-18T07:55:37;1.15;;;1.00;;
20287;SDS011;10303;51.960;8.372;2023-09-18T07:58:03;1.95;;;1.48;;
20287;SDS011;10303;51.960;8.372;2023-09-18T08:00:30;3.45;;;1.05;;
20287;SDS011;10303;51.960;8.372;2023-09-18T08:02:58;2.47;;;0.90;;
20287;SDS011;10303;51.960;8.372;2023-09-18T08:05:26;1.98;;;1.38;;
20287;SDS011;10303;51.960;8.372;2023-09-18T08:07:53;2.67;;;1.38;;
20287;SDS011;10303;51.960;8.372;2023-09-18T08:10:21;3.15;;;1.23;;
20287;SDS011;10303;51.960;8.372;2023-09-18T08:12:48;1.25;;;0.98;;
20287;SDS011;10303;51.960;8.372;2023-09-18T08:15:16;2.67;;;0.90;;
20287;SDS011;10303;51.960;8.372;2023-09-18T08:17:43;1.52;;;1.13;;
20287;SDS011;10303;51.960;8.372;2023-09-18T08:20:09;1.23;;;0.80;;
20287;SDS011;10303;51.960;8.372;2023-09-18T08:22:39;1.60;;;1.30;;
20287;SDS011;10303;51.960;8.372;2023-09-18T08:25:06;3.63;;;1.50;;
20287;SDS011;10303;51.960;8.372;2023-09-18T08:27:39;1.40;;;1.05;;
20287;SDS011;10303;51.960;8.372;2023-09-18T08:30:13;1.60;;;1.23;;
20287;SDS011;10303;51.960;8.372;2023-09-18T08:32:40;1.08;;;0.90;;
20287;SDS011;10303;51.960;8.372;2023-09-18T08:35:07;1.45;;;0.80;;
20287;SDS011;10303;51.960;8.372;2023-09-18T08:37:34;3.33;;;1.15;;
20287;SDS011;10303;51.960;8.372;2023-09-18T08:40:01;5.13;;;0.90;;
20287;SDS011;10303;51.960;8.372;2023-09-18T08:42:35;11.48;;;1.50;;
20287;SDS011;10303;51.960;8.372;2023-09-18T08:45:12;3.17;;;1.25;;
20287;SDS011;10303;51.960;8.372;2023-09-18T08:47:47;1.95;;;0.90;;
20287;SDS011;10303;51.960;8.372;2023-09-18T08:50:16;0.80;;;0.80;;
20287;SDS011;10303;51.960;8.372;2023-09-18T08:52:44;1.58;;;1.08;;
20287;SDS011;10303;51.960;8.372;2023-09-18T08:55:13;1.00;;;0.60;;
20287;SDS011;10303;51.960;8.372;2023-09-18T08:57:39;1.75;;;1.23;;
20287;SDS011;10303;51.960;8.372;2023-09-18T09:00:08;2.78;;;1.50;;
20287;SDS011;10303;51.960;8.372;2023-09-18T09:02:37;3.88;;;0.90;;
20287;SDS011;10303;51.960;8.372;2023-09-18T09:05:03;5.53;;;1.05;;
20287;SDS011;10303;51.960;8.372;2023-09-18T09:07:30;2.20;;;1.10;;
20287;SDS011;10303;51.960;8.372;2023-09-18T09:09:56;3.47;;;1.23;;
20287;SDS011;10303;51.960;8.372;2023-09-18T09:15:23;2.72;;;1.15;;
20287;SDS011;10303;51.960;8.372;2023-09-18T09:18:02;3.40;;;0.93;;
20287;SDS011;10303;51.960;8.372;2023-09-18T09:20:31;3.25;;;1.17;;
20287;SDS011;10303;51.960;8.372;2023-09-18T09:23:05;3.00;;;0.80;;
20287;SDS011;10303;51.960;8.372;2023-09-18T09:25:33;3.25;;;0.95;;
20287;SDS011;10303;51.960;8.372;2023-09-18T09:28:01;0.80;;;0.80;;
20287;SDS011;10303;51.960;8.372;2023-09-18T09:30:33;0.73;;;0.60;;
20287;SDS011;10303;51.960;8.372;2023-09-18T09:33:04;3.38;;;1.10;;
20287;SDS011;10303;51.960;8.372;2023-09-18T09:35:36;2.00;;;1.00;;
20287;SDS011;10303;51.960;8.372;2023-09-18T09:38:11;3.33;;;1.10;;
20287;SDS011;10303;51.960;8.372;2023-09-18T09:40:41;1.42;;;0.80;;
20287;SDS011;10303;51.960;8.372;2023-09-18T09:43:10;4.13;;;1.08;;
20287;SDS011;10303;51.960;8.372;2023-09-18T09:45:38;3.10;;;0.77;;
20287;SDS011;10303;51.960;8.372;2023-09-18T09:48:06;2.70;;;0.95;;
20287;SDS011;10303;51.960;8.372;2023-09-18T09:50:34;1.52;;;0.85;;
20287;SDS011;10303;51.960;8.372;2023-09-18T09:53:12;4.40;;;1.30;;
20287;SDS011;10303;51.960;8.372;2023-09-18T09:55:39;2.13;;;0.90;;
20287;SDS011;10303;51.960;8.372;2023-09-18T09:58:07;2.35;;;1.00;;
20287;SDS011;10303;51.960;8.372;2023-09-18T10:03:18;1.33;;;0.80;;
20287;SDS011;10303;51.960;8.372;2023-09-18T10:05:47;2.35;;;0.70;;
20287;SDS011;10303;51.960;8.372;2023-09-18T10:08:17;2.53;;;1.02;;
20287;SDS011;10303;51.960;8.372;2023-09-18T10:10:52;1.75;;;0.65;;
20287;SDS011;10303;51.960;8.372;2023-09-18T10:16:12;3.72;;;1.00;;
20287;SDS011;10303;51.960;8.372;2023-09-18T10:24:41;1.85;;;0.98;;
20287;SDS011;10303;51.960;8.372;2023-09-18T10:27:12;1.08;;;1.00;;
20287;SDS011;10303;51.960;8.372;2023-09-18T10:29:41;2.03;;;0.82;;
20287;SDS011;10303;51.960;8.372;2023-09-18T10:32:09;2.85;;;0.90;;
20287;SDS011;10303;51.960;8.372;2023-09-18T10:34:37;1.33;;;0.90;;
20287;SDS011;10303;51.960;8.372;2023-09-18T10:37:04;2.03;;;0.95;;
20287;SDS011;10303;51.960;8.372;2023-09-18T10:39:34;2.65;;;1.40;;
20287;SDS011;10303;51.960;8.372;2023-09-18T10:42:03;1.13;;;0.93;;
20287;SDS011;10303;51.960;8.372;2023-09-18T10:44:31;2.17;;;1.33;;
20287;SDS011;10303;51.960;8.372;2023-09-18T10:46:57;2.05;;;0.90;;
20287;SDS011;10303;51.960;8.372;2023-09-18T10:49:26;0.70;;;0.70;;
20287;SDS011;10303;51.960;8.372;2023-09-18T10:51:55;1.02;;;0.80;;
20287;SDS011;10303;51.960;8.372;2023-09-18T10:54:24;1.13;;;1.05;;
20287;SDS011;10303;51.960;8.372;2023-09-18T10:56:52;1.42;;;1.17;;
20287;SDS011;10303;51.960;8.372;2023-09-18T10:59:18;0.80;;;0.80;;
20287;SDS011;10303;51.960;8.372;2023-09-18T11:01:46;0.80;;;0.80;;
20287;SDS011;10303;51.960;8.372;2023-09-18T11:04:13;1.45;;;1.00;;
20287;SDS011;10303;51.960;8.372;2023-09-18T11:09:25;1.40;;;1.00;;
20287;SDS011;10303;51.960;8.372;2023-09-18T11:14:42;3.60;;;0.82;;
20287;SDS011;10303;51.960;8.372;2023-09-18T11:20:04;0.82;;;0.82;;
20287;SDS011;10303;51.960;8.372;2023-09-18T11:22:46;1.50;;;0.95;;
20287;SDS011;10303;51.960;8.372;2023-09-18T11:25:38;1.10;;;1.00;;
20287;SDS011;10303;51.960;8.372;2023-09-18T11:28:22;2.45;;;0.98;;
20287;SDS011;10303;51.960;8.372;2023-09-18T11:30:51;0.95;;;0.88;;
20287;SDS011;10303;51.960;8.372;2023-09-18T11:33:36;1.30;;;1.00;;
20287;SDS011;10303;51.960;8.372;2023-09-18T11:38:57;3.35;;;1.20;;
20287;SDS011;10303;51.960;8.372;2023-09-18T11:41:28;2.60;;;1.00;;
20287;SDS011;10303;51.960;8.372;2023-09-18T11:46:45;1.73;;;0.90;;
20287;SDS011;10303;51.960;8.372;2023-09-18T11:49:21;0.93;;;0.93;;
20287;SDS011;10303;51.960;8.372;2023-09-18T11:51:51;3.53;;;1.10;;
20287;SDS011;10303;51.960;8.372;2023-09-18T11:54:18;1.10;;;0.93;;
20287;SDS011;10303;51.960;8.372;2023-09-18T11:56:45;1.00;;;0.90;;
20287;SDS011;10303;51.960;8.372;2023-09-18T11:59:12;0.80;;;0.80;;
20287;SDS011;10303;51.960;8.372;2023-09-18T12:01:38;0.85;;;0.70;;
20287;SDS011;10303;51.960;8.372;2023-09-18T12:04:04;0.98;;;0.82;;
20287;SDS011;10303;51.960;8.372;2023-09-18T12:06:34;0.68;;;0.68;;
20287;SDS011;10303;51.960;8.372;2023-09-18T12:09:02;2.70;;;1.02;;
20287;SDS011;10303;51.960;8.372;2023-09-18T12:11:29;0.65;;;0.65;;
20287;SDS011;10303;51.960;8.372;2023-09-18T12:13:55;0.63;;;0.60;;
20287;SDS011;10303;51.960;8.372;2023-09-18T12:16:23;0.60;;;0.60;;
20287;SDS011;10303;51.960;8.372;2023-09-18T12:18:49;0.82;;;0.70;;
20287;SDS011;10303;51.960;8.372;2023-09-18T12:21:16;1.60;;;0.70;;
20287;SDS011;10303;51.960;8.372;2023-09-18T12:23:44;0.95;;;0.88;;
20287;SDS011;10303;51.960;8.372;2023-09-18T12:26:11;0.63;;;0.63;;
20287;SDS011;10303;51.960;8.372;2023-09-18T12:28:43;1.35;;;0.70;;
20287;SDS011;10303;51.960;8.372;2023-09-18T12:31:10;0.70;;;0.70;;
20287;SDS011;10303;51.960;8.372;2023-09-18T12:33:41;1.08;;;0.98;;
20287;SDS011;10303;51.960;8.372;2023-09-18T12:36:18;0.70;;;0.60;;
20287;SDS011;10303;51.960;8.372;2023-09-18T12:38:55;1.33;;;0.73;;
20287;SDS011;10303;51.960;8.372;2023-09-18T12:41:24;1.77;;;0.80;;
20287;SDS011;10303;51.960;8.372;2023-09-18T12:43:50;2.35;;;0.70;;
20287;SDS011;10303;51.960;8.372;2023-09-18T12:46:19;2.25;;;0.60;;
20287;SDS011;10303;51.960;8.372;2023-09-18T12:48:47;6.05;;;2.05;;
20287;SDS011;10303;51.960;8.372;2023-09-18T12:51:13;0.80;;;0.63;;
20287;SDS011;10303;51.960;8.372;2023-09-18T12:53:41;0.50;;;0.50;;
20287;SDS011;10303;51.960;8.372;2023-09-18T12:56:14;4.40;;;0.93;;
20287;SDS011;10303;51.960;8.372;2023-09-18T12:58:40;1.13;;;1.05;;
20287;SDS011;10303;51.960;8.372;2023-09-18T13:01:10;0.90;;;0.80;;
20287;SDS011;10303;51.960;8.372;2023-09-18T13:03:46;0.80;;;0.80;;
20287;SDS011;10303;51.960;8.372;2023-09-18T13:06:15;0.68;;;0.68;;
20287;SDS011;10303;51.960;8.372;2023-09-18T13:08:43;3.08;;;1.00;;
20287;SDS011;10303;51.960;8.372;2023-09-18T13:11:10;2.20;;;0.80;;
20287;SDS011;10303;51.960;8.372;2023-09-18T13:13:37;0.75;;;0.75;;
20287;SDS011;10303;51.960;8.372;2023-09-18T13:16:07;1.70;;;0.75;;
20287;SDS011;10303;51.960;8.372;2023-09-18T13:18:37;2.15;;;0.70;;
20287;SDS011;10303;51.960;8.372;2023-09-18T13:21:10;0.70;;;0.70;;
20287;SDS011;10303;51.960;8.372;2023-09-18T13:23:39;2.60;;;0.65;;
20287;SDS011;10303;51.960;8.372;2023-09-18T13:26:06;2.63;;;0.80;;
20287;SDS011;10303;51.960;8.372;2023-09-18T13:28:33;2.75;;;0.85;;
20287;SDS011;10303;51.960;8.372;2023-09-18T13:31:04;1.00;;;0.80;;
20287;SDS011;10303;51.960;8.372;2023-09-18T13:33:32;0.75;;;0.63;;
20287;SDS011;10303;51.960;8.372;2023-09-18T13:36:03;2.40;;;0.77;;
20287;SDS011;10303;51.960;8.372;2023-09-18T13:38:30;1.23;;;0.60;;
20287;SDS011;10303;51.960;8.372;2023-09-18T13:40:56;2.50;;;0.70;;
20287;SDS011;10303;51.960;8.372;2023-09-18T13:43:22;0.70;;;0.70;;
20287;SDS011;10303;51.960;8.372;2023-09-18T13:45:48;2.05;;;0.77;;
20287;SDS011;10303;51.960;8.372;2023-09-18T13:48:19;0.40;;;0.40;;
20287;SDS011;10303;51.960;8.372;2023-09-18T13:50:45;2.10;;;0.70;;
20287;SDS011;10303;51.960;8.372;2023-09-18T13:53:12;1.60;;;0.70;;
20287;SDS011;10303;51.960;8.372;2023-09-18T13:55:39;1.10;;;1.00;;
20287;SDS011;10303;51.960;8.372;2023-09-18T13:58:05;1.50;;;0.60;;
20287;SDS011;10303;51.960;8.372;2023-09-18T14:00:31;0.98;;;0.73;;
20287;SDS011;10303;51.960;8.372;2023-09-18T14:02:58;0.90;;;0.90;;
20287;SDS011;10303;51.960;8.372;2023-09-18T14:05:25;0.88;;;0.68;;
20287;SDS011;10303;51.960;8.372;2023-09-18T14:07:52;2.85;;;1.00;;
20287;SDS011;10303;51.960;8.372;2023-09-18T14:10:24;1.20;;;0.80;;
20287;SDS011;10303;51.960;8.372;2023-09-18T14:12:51;1.50;;;0.73;;
20287;SDS011;10303;51.960;8.372;2023-09-18T14:15:17;1.65;;;0.88;;
20287;SDS011;10303;51.960;8.372;2023-09-18T14:17:43;1.58;;;1.27;;
20287;SDS011;10303;51.960;8.372;2023-09-18T14:20:10;1.05;;;0.75;;
20287;SDS011;10303;51.960;8.372;2023-09-18T14:22:36;0.95;;;0.80;;
20287;SDS011;10303;51.960;8.372;2023-09-18T14:25:02;2.92;;;1.13;;
20287;SDS011;10303;51.960;8.372;2023-09-18T14:27:34;1.05;;;0.73;;
20287;SDS011;10303;51.960;8.372;2023-09-18T14:30:01;2.08;;;1.00;;
20287;SDS011;10303;51.960;8.372;2023-09-18T14:32:31;1.17;;;0.60;;
20287;SDS011;10303;51.960;8.372;2023-09-18T14:34:58;0.95;;;0.95;;
20287;SDS011;10303;51.960;8.372;2023-09-18T14:37:28;0.75;;;0.73;;
20287;SDS011;10303;51.960;8.372;2023-09-18T14:39:54;0.70;;;0.70;;
20287;SDS011;10303;51.960;8.372;2023-09-18T14:42:20;0.68;;;0.68;;
20287;SDS011;10303;51.960;8.372;2023-09-18T14:44:46;0.77;;;0.73;;
20287;SDS011;10303;51.960;8.372;2023-09-18T14:47:13;0.60;;;0.60;;
20287;SDS011;10303;51.960;8.372;2023-09-18T14:49:39;0.98;;;0.60;;
20287;SDS011;10303;51.960;8.372;2023-09-18T14:52:05;0.77;;;0.57;;
20287;SDS011;10303;51.960;8.372;2023-09-18T14:54:31;0.52;;;0.52;;
20287;SDS011;10303;51.960;8.372;2023-09-18T14:56:57;0.73;;;0.73;;
20287;SDS011;10303;51.960;8.372;2023-09-18T14:59:24;1.55;;;0.70;;
20287;SDS011;10303;51.960;8.372;2023-09-18T15:01:50;0.75;;;0.55;;
20287;SDS011;10303;51.960;8.372;2023-09-18T15:04:16;0.57;;;0.50;;
20287;SDS011;10303;51.960;8.372;2023-09-18T15:06:42;1.95;;;0.75;;
20287;SDS011;10303;51.960;8.372;2023-09-18T15:09:08;1.63;;;0.70;;
20287;SDS011;10303;51.960;8.372;2023-09-18T15:11:34;0.60;;;0.60;;
20287;SDS011;10303;51.960;8.372;2023-09-18T15:14:01;0.65;;;0.60;;
20287;SDS011;10303;51.960;8.372;2023-09-18T15:16:28;1.00;;;0.63;;
20287;SDS011;10303;51.960;8.372;2023-09-18T15:18:55;2.47;;;0.70;;
20287;SDS011;10303;51.960;8.372;2023-09-18T15:21:25;0.90;;;0.80;;
20287;SDS011;10303;51.960;8.372;2023-09-18T15:23:51;1.63;;;0.90;;